createdAt,value
2022-08-07T00:02:41.159Z,0.50
2022-08-07T00:05:05.719Z,0.40
2022-08-07T00:10:29.518Z,0.30
2022-08-07T00:13:09.643Z,0.45
2022-08-07T00:15:51.893Z,0.30
2022-08-07T00:18:25.119Z,0.47
2022-08-07T00:21:08.130Z,0.50
2022-08-07T00:23:53.268Z,0.40
2022-08-07T00:26:49.341Z,0.30
2022-08-07T00:29:09.373Z,0.60
2022-08-07T00:31:42.079Z,0.40
2022-08-07T00:34:10.702Z,0.43
2022-08-07T00:36:43.185Z,0.40
2022-08-07T00:39:17.098Z,0.40
2022-08-07T00:41:53.671Z,0.50
2022-08-07T00:44:30.490Z,0.60
2022-08-07T00:47:06.650Z,0.50
2022-08-07T00:50:20.544Z,0.30
2022-08-07T00:52:33.397Z,0.47
2022-08-07T00:57:55.058Z,0.40
2022-08-07T01:00:25.026Z,0.32
2022-08-07T01:03:14.782Z,0.40
2022-08-07T01:05:53.499Z,0.38
2022-08-07T01:08:22.304Z,0.40
2022-08-07T01:10:56.677Z,0.50
2022-08-07T01:13:28.761Z,0.40
2022-08-07T01:16:06.106Z,0.50
2022-08-07T01:18:35.849Z,0.60
2022-08-07T01:21:22.663Z,0.45
2022-08-07T01:23:54.312Z,0.45
2022-08-07T01:26:26.078Z,0.55
2022-08-07T01:28:55.694Z,0.50
2022-08-07T01:31:42.436Z,0.60
2022-08-07T01:34:14.292Z,0.90
2022-08-07T01:36:44.428Z,0.52
2022-08-07T01:39:39.436Z,0.55
2022-08-07T01:42:38.747Z,0.40
2022-08-07T01:45:00.555Z,0.55
2022-08-07T01:48:19.912Z,0.70
2022-08-07T01:50:22.708Z,0.70
2022-08-07T01:53:08.784Z,0.50
2022-08-07T01:55:46.726Z,0.57
2022-08-07T01:58:28.912Z,0.32
2022-08-07T02:01:09.810Z,0.43
2022-08-07T02:03:48.932Z,0.40
2022-08-07T02:06:31.679Z,0.40
2022-08-07T02:09:11.715Z,0.40
2022-08-07T02:12:17.796Z,0.40
2022-08-07T02:14:58.968Z,0.30
2022-08-07T02:17:40.923Z,0.30
2022-08-07T02:20:23.731Z,0.50
2022-08-07T02:23:00.116Z,0.40
2022-08-07T02:26:26.776Z,0.50
2022-08-07T02:28:24.552Z,0.60
2022-08-07T02:30:59.402Z,0.40
2022-08-07T02:33:57.352Z,0.40
2022-08-07T02:36:31.826Z,0.57
2022-08-07T02:39:16.747Z,0.40
2022-08-07T02:41:54.990Z,0.43
2022-08-07T02:44:34.366Z,0.47
2022-08-07T02:47:08.351Z,0.45
2022-08-07T02:49:58.284Z,0.52
2022-08-07T02:53:00.906Z,0.40
2022-08-07T02:56:03.128Z,0.50
2022-08-07T02:58:28.396Z,1.17
2022-08-07T03:01:04.160Z,0.43
2022-08-07T03:03:48.942Z,0.40
2022-08-07T03:06:26.247Z,0.45
2022-08-07T03:09:11.154Z,0.50
2022-08-07T03:11:57.427Z,0.50
2022-08-07T03:14:30.849Z,0.40
2022-08-07T03:16:59.606Z,0.40
2022-08-07T03:19:37.146Z,0.38
2022-08-07T03:22:07.898Z,0.40
2022-08-07T03:24:53.190Z,0.30
2022-08-07T03:27:30.393Z,0.50
2022-08-07T03:30:03.815Z,1.10
2022-08-07T03:32:48.950Z,0.40
2022-08-07T03:35:44.100Z,0.70
2022-08-07T03:38:29.402Z,0.35
2022-08-07T03:41:01.732Z,0.50
2022-08-07T03:43:35.976Z,0.30
2022-08-07T03:46:10.537Z,0.40
2022-08-07T03:49:02.626Z,0.40
2022-08-07T03:51:47.894Z,0.40
2022-08-07T03:54:36.065Z,0.40
2022-08-07T03:58:33.395Z,0.40
2022-08-07T04:00:10.493Z,0.40
2022-08-07T04:02:47.103Z,0.38
2022-08-07T04:05:39.173Z,0.50
2022-08-07T04:08:18.276Z,0.50
2022-08-07T04:10:54.666Z,0.60
2022-08-07T04:14:32.961Z,0.50
2022-08-07T04:16:31.148Z,0.40
2022-08-07T04:19:12.588Z,0.65
2022-08-07T04:22:04.855Z,0.47
2022-08-07T04:24:41.201Z,0.30
2022-08-07T04:27:20.789Z,0.55
2022-08-07T04:30:01.588Z,0.50
2022-08-07T04:32:58.204Z,0.50
2022-08-07T04:35:35.324Z,0.40
2022-08-07T04:38:11.417Z,0.50
2022-08-07T04:40:52.796Z,0.55
2022-08-07T04:44:10.470Z,0.65
2022-08-07T04:47:07.579Z,0.40
2022-08-07T04:49:57.734Z,0.40
2022-08-07T04:53:40.243Z,0.63
2022-08-07T04:58:14.032Z,0.47
2022-08-07T05:00:09.920Z,0.40
2022-08-07T05:04:17.157Z,0.50
2022-08-07T05:07:36.557Z,0.60
2022-08-07T05:10:23.513Z,0.60
2022-08-07T05:14:54.506Z,0.55
2022-08-07T05:16:09.454Z,0.50
2022-08-07T05:18:48.930Z,0.47
2022-08-07T05:22:00.461Z,0.40
2022-08-07T05:24:18.245Z,0.80
2022-08-07T05:26:59.345Z,0.60
2022-08-07T05:29:39.073Z,0.73
2022-08-07T05:32:19.376Z,0.50
2022-08-07T05:34:50.061Z,0.50
2022-08-07T05:37:25.380Z,0.60
2022-08-07T05:40:05.889Z,0.50
2022-08-07T05:42:43.431Z,0.63
2022-08-07T05:45:46.942Z,0.50
2022-08-07T05:48:19.389Z,0.45
2022-08-07T05:50:56.875Z,0.40
2022-08-07T05:54:13.413Z,0.40
2022-08-07T05:56:18.285Z,0.32
2022-08-07T05:58:53.082Z,0.40
2022-08-07T06:01:35.701Z,0.30
2022-08-07T06:04:09.385Z,0.33
2022-08-07T06:06:45.874Z,0.40
2022-08-07T06:09:17.272Z,0.40
2022-08-07T06:11:51.775Z,0.30
2022-08-07T06:14:28.664Z,0.38
2022-08-07T06:17:01.376Z,0.40
2022-08-07T06:19:57.633Z,0.50
2022-08-07T06:22:38.909Z,0.60
2022-08-07T06:25:37.354Z,0.60
2022-08-07T06:30:46.139Z,0.30
2022-08-07T06:33:23.424Z,0.30
2022-08-07T06:36:12.158Z,0.45
2022-08-07T06:38:58.555Z,0.30
2022-08-07T06:42:02.967Z,0.60
2022-08-07T06:44:53.295Z,0.38
2022-08-07T06:47:26.965Z,0.40
2022-08-07T06:49:59.076Z,0.60
2022-08-07T06:52:42.315Z,0.50
2022-08-07T06:55:48.011Z,0.43
2022-08-07T06:58:24.520Z,0.52
2022-08-07T07:01:10.501Z,0.50
2022-08-07T07:03:50.210Z,0.63
2022-08-07T07:06:27.641Z,0.50
2022-08-07T07:08:58.137Z,0.50
2022-08-07T07:12:07.888Z,0.68
2022-08-07T07:14:19.031Z,0.80
2022-08-07T07:16:53.627Z,0.60
2022-08-07T07:19:57.993Z,0.60
2022-08-07T07:22:36.744Z,0.60
2022-08-07T07:26:33.481Z,0.68
2022-08-07T07:28:42.194Z,0.63
2022-08-07T07:31:30.420Z,0.70
2022-08-07T07:34:13.412Z,0.73
2022-08-07T07:36:47.987Z,0.90
2022-08-07T07:39:25.509Z,0.95
2022-08-07T07:42:13.406Z,0.95
2022-08-07T07:44:49.558Z,0.60
2022-08-07T07:47:23.891Z,0.80
2022-08-07T07:50:36.409Z,0.80
2022-08-07T07:52:44.507Z,0.93
2022-08-07T07:55:20.181Z,0.80
2022-08-07T07:57:58.166Z,0.80
2022-08-07T08:00:31.457Z,0.80
2022-08-07T08:03:16.630Z,1.17
2022-08-07T08:05:54.005Z,1.00
2022-08-07T08:08:34.887Z,0.90
2022-08-07T08:11:16.610Z,0.80
2022-08-07T08:13:54.130Z,1.08
2022-08-07T08:16:50.188Z,0.90
2022-08-07T08:20:17.329Z,1.02
2022-08-07T08:22:33.317Z,0.80
2022-08-07T08:25:41.892Z,0.88
2022-08-07T08:28:23.902Z,1.00
2022-08-07T08:31:14.819Z,1.02
2022-08-07T08:33:49.558Z,1.00
2022-08-07T08:36:29.723Z,1.00
2022-08-07T08:39:02.766Z,0.90
2022-08-07T08:41:57.587Z,0.95
2022-08-07T08:44:53.032Z,1.15
2022-08-07T08:48:01.062Z,1.20
2022-08-07T08:50:47.915Z,1.35
2022-08-07T08:53:42.460Z,1.25
2022-08-07T08:56:47.212Z,0.93
2022-08-07T08:59:54.271Z,0.90
2022-08-07T09:03:02.108Z,0.82
2022-08-07T09:05:52.138Z,1.10
2022-08-07T09:08:58.771Z,0.95
2022-08-07T09:12:29.968Z,1.02
2022-08-07T09:16:21.513Z,1.00
2022-08-07T09:19:51.533Z,1.10
2022-08-07T09:24:55.521Z,1.23
2022-08-07T09:25:54.211Z,1.13
2022-08-07T09:30:01.528Z,1.00
2022-08-07T09:31:48.464Z,0.93
2022-08-07T09:34:53.871Z,0.90
2022-08-07T09:37:48.453Z,0.93
2022-08-07T09:40:52.267Z,0.70
2022-08-07T09:44:03.477Z,0.80
2022-08-07T09:47:52.607Z,0.65
2022-08-07T09:50:18.614Z,0.90
2022-08-07T09:53:00.844Z,0.60
2022-08-07T09:56:05.473Z,0.80
2022-08-07T09:59:07.826Z,0.60
2022-08-07T10:02:24.963Z,0.50
2022-08-07T10:05:59.539Z,0.50
2022-08-07T10:09:07.139Z,0.50
2022-08-07T10:12:21.808Z,0.47
2022-08-07T10:15:44.314Z,0.43
2022-08-07T10:18:43.917Z,0.30
2022-08-07T10:22:14.523Z,0.30
2022-08-07T10:25:42.055Z,0.40
2022-08-07T10:28:49.703Z,0.43
2022-08-07T10:32:04.546Z,0.45
2022-08-07T10:35:20.543Z,0.43
2022-08-07T10:38:42.132Z,0.45
2022-08-07T10:41:53.100Z,0.20
2022-08-07T10:44:54.695Z,0.32
2022-08-07T10:47:52.832Z,0.40
2022-08-07T10:50:53.056Z,0.30
2022-08-07T10:54:00.322Z,0.43
2022-08-07T10:56:56.336Z,0.30
2022-08-07T10:59:47.717Z,0.50
2022-08-07T11:03:14.924Z,0.50
2022-08-07T11:06:18.329Z,0.35
2022-08-07T11:10:07.677Z,0.35
2022-08-07T11:12:38.596Z,0.55
2022-08-07T11:15:26.295Z,0.43
2022-08-07T11:18:20.759Z,0.40
2022-08-07T11:21:18.748Z,0.35
2022-08-07T11:24:08.356Z,0.30
2022-08-07T11:26:53.895Z,0.32
2022-08-07T11:30:17.761Z,0.30
2022-08-07T11:33:54.011Z,0.30
2022-08-07T11:36:42.978Z,0.30
2022-08-07T11:39:59.807Z,0.25
2022-08-07T11:43:03.063Z,0.30
2022-08-07T11:46:07.023Z,0.20
2022-08-07T11:49:27.605Z,0.38
2022-08-07T11:52:19.719Z,0.40
2022-08-07T11:56:12.038Z,0.40
2022-08-07T12:00:08.157Z,0.43
2022-08-07T12:02:30.148Z,0.35
2022-08-07T12:05:28.826Z,0.30
2022-08-07T12:08:25.675Z,0.30
2022-08-07T12:11:22.437Z,0.40
2022-08-07T12:14:04.116Z,0.35
2022-08-07T12:16:46.926Z,0.32
2022-08-07T12:20:03.459Z,0.30
2022-08-07T12:23:37.321Z,0.22
2022-08-07T12:26:50.517Z,0.20
2022-08-07T12:29:59.436Z,0.32
2022-08-07T12:32:34.364Z,0.40
2022-08-07T12:35:10.615Z,0.20
2022-08-07T12:38:09.413Z,0.40
2022-08-07T12:40:47.530Z,0.38
2022-08-07T12:44:04.552Z,0.30
2022-08-07T12:46:37.319Z,0.30
2022-08-07T12:49:51.298Z,0.40
2022-08-07T12:52:57.052Z,0.32
2022-08-07T12:56:02.589Z,0.30
2022-08-07T12:58:53.209Z,0.30
2022-08-07T13:02:10.082Z,0.30
2022-08-07T13:06:01.740Z,0.30
2022-08-07T13:08:18.795Z,0.30
2022-08-07T13:14:03.785Z,0.30
2022-08-07T13:17:02.378Z,0.30
2022-08-07T13:20:21.940Z,0.30
2022-08-07T13:23:09.916Z,0.15
2022-08-07T13:26:03.804Z,0.55
2022-08-07T13:28:47.343Z,0.30
2022-08-07T13:31:54.884Z,0.25
2022-08-07T13:34:48.520Z,0.30
2022-08-07T13:38:03.975Z,0.30
2022-08-07T13:40:53.064Z,0.30
2022-08-07T13:43:27.002Z,0.30
2022-08-07T13:46:11.831Z,0.35
2022-08-07T13:48:58.678Z,0.40
2022-08-07T13:52:05.133Z,0.40
2022-08-07T13:54:33.572Z,0.30
2022-08-07T13:57:14.666Z,0.20
2022-08-07T13:59:57.697Z,0.20
2022-08-07T14:02:39.550Z,0.30
2022-08-07T14:05:23.296Z,0.30
2022-08-07T14:08:00.813Z,0.28
2022-08-07T14:10:41.984Z,0.40
2022-08-07T14:13:16.615Z,0.30
2022-08-07T14:16:05.321Z,0.30
2022-08-07T14:18:57.049Z,0.30
2022-08-07T14:22:03.410Z,0.30
2022-08-07T14:24:43.354Z,0.40
2022-08-07T14:30:11.939Z,0.28
2022-08-07T14:32:48.399Z,0.50
2022-08-07T14:35:44.814Z,0.68
2022-08-07T14:38:24.514Z,0.43
2022-08-07T14:41:12.194Z,0.70
2022-08-07T14:43:57.987Z,0.63
2022-08-07T14:46:34.589Z,0.30
2022-08-07T14:49:56.214Z,0.30
2022-08-07T14:52:04.657Z,0.63
2022-08-07T14:54:44.854Z,1.25
2022-08-07T14:57:19.782Z,1.50
2022-08-07T15:02:39.046Z,0.25
2022-08-07T15:05:20.303Z,0.22
2022-08-07T15:07:54.262Z,0.40
2022-08-07T15:16:14.696Z,0.22
2022-08-07T15:18:51.807Z,0.20
2022-08-07T15:21:59.617Z,0.35
2022-08-07T15:27:31.309Z,1.35
2022-08-07T15:30:16.524Z,0.40
2022-08-07T15:33:01.549Z,0.30
2022-08-07T15:38:51.652Z,0.50
2022-08-07T15:44:23.587Z,0.40
2022-08-07T15:47:17.005Z,0.50
2022-08-07T15:52:44.241Z,0.50
2022-08-07T15:55:23.178Z,0.40
2022-08-07T15:58:00.413Z,0.30
2022-08-07T16:00:37.994Z,0.35
2022-08-07T16:03:47.251Z,0.52
2022-08-07T16:06:15.387Z,0.47
2022-08-07T16:08:49.669Z,0.50
2022-08-07T16:12:03.867Z,0.30
2022-08-07T16:15:57.821Z,0.28
2022-08-07T16:18:49.679Z,0.30
2022-08-07T16:21:44.394Z,0.55
2022-08-07T16:24:53.017Z,0.40
2022-08-07T16:27:39.808Z,0.38
2022-08-07T16:30:30.511Z,0.30
2022-08-07T16:34:01.723Z,0.30
2022-08-07T16:37:01.925Z,0.30
2022-08-07T16:40:32.110Z,0.28
2022-08-07T16:44:06.280Z,0.30
2022-08-07T16:47:04.568Z,0.40
2022-08-07T16:50:27.886Z,0.47
2022-08-07T16:53:48.096Z,0.32
2022-08-07T16:56:37.531Z,0.47
2022-08-07T16:59:51.629Z,0.30
2022-08-07T17:02:53.951Z,0.38
2022-08-07T17:06:19.541Z,0.40
2022-08-07T17:10:08.344Z,0.35
2022-08-07T17:13:20.650Z,0.40
2022-08-07T17:20:02.989Z,0.25
2022-08-07T17:23:21.058Z,0.35
2022-08-07T17:26:36.862Z,0.35
2022-08-07T17:30:14.990Z,0.30
2022-08-07T17:34:08.891Z,0.35
2022-08-07T17:36:27.892Z,0.30
2022-08-07T17:39:25.242Z,0.30
2022-08-07T17:42:28.477Z,0.30
2022-08-07T17:45:04.580Z,0.30
2022-08-07T17:48:04.540Z,0.35
2022-08-07T17:50:55.144Z,0.45
2022-08-07T17:54:39.926Z,0.20
2022-08-07T17:57:58.440Z,0.40
2022-08-07T18:00:27.507Z,0.90
2022-08-07T18:03:25.361Z,0.60
2022-08-07T18:06:09.360Z,0.30
2022-08-07T18:09:02.242Z,0.30
2022-08-07T18:12:17.425Z,0.30
2022-08-07T18:15:01.437Z,0.30
2022-08-07T18:18:33.083Z,0.32
2022-08-07T18:21:40.104Z,0.25
2022-08-07T18:24:32.963Z,0.30
2022-08-07T18:27:45.037Z,0.40
2022-08-07T18:30:31.377Z,0.40
2022-08-07T18:33:29.073Z,0.30
2022-08-07T18:36:43.915Z,0.40
2022-08-07T18:40:08.055Z,0.40
2022-08-07T18:43:57.699Z,0.40
2022-08-07T18:46:43.122Z,0.30
2022-08-07T18:50:19.686Z,0.45
2022-08-07T18:52:55.000Z,0.50
2022-08-07T18:55:57.265Z,0.32
2022-08-07T18:58:43.097Z,0.40
2022-08-07T19:02:18.121Z,0.38
2022-08-07T19:05:09.702Z,0.47
2022-08-07T19:08:07.117Z,0.40
2022-08-07T19:11:35.041Z,0.40
2022-08-07T19:14:26.269Z,0.38
2022-08-07T19:17:22.097Z,0.40
2022-08-07T19:20:29.771Z,0.43
2022-08-07T19:23:19.530Z,0.40
2022-08-07T19:26:22.845Z,0.40
2022-08-07T19:30:56.577Z,0.38
2022-08-07T19:32:16.337Z,0.47
2022-08-07T19:35:01.450Z,0.40
2022-08-07T19:37:47.262Z,0.63
2022-08-07T19:40:31.007Z,0.50
2022-08-07T19:43:22.068Z,0.40
2022-08-07T19:46:10.824Z,0.50
2022-08-07T19:48:54.088Z,0.40
2022-08-07T19:51:53.285Z,0.40
2022-08-07T19:54:31.809Z,0.32
2022-08-07T19:58:02.556Z,0.40
2022-08-07T20:00:09.028Z,0.40
2022-08-07T20:02:53.862Z,0.30
2022-08-07T20:06:01.293Z,0.40
2022-08-07T20:08:30.253Z,0.40
2022-08-07T20:11:09.667Z,0.40
2022-08-07T20:13:54.041Z,0.60
2022-08-07T20:16:36.454Z,0.40
2022-08-07T20:19:11.975Z,0.50
2022-08-07T20:21:47.584Z,0.45
2022-08-07T20:24:28.633Z,0.50
2022-08-07T20:27:07.648Z,0.40
2022-08-07T20:29:58.460Z,0.40
2022-08-07T20:32:46.619Z,0.32
2022-08-07T20:35:26.373Z,0.40
2022-08-07T20:37:59.455Z,0.50
2022-08-07T20:40:44.100Z,0.50
2022-08-07T20:46:27.237Z,0.20
2022-08-07T20:49:54.659Z,0.40
2022-08-07T20:51:50.187Z,0.50
2022-08-07T20:54:30.339Z,0.75
2022-08-07T20:57:08.272Z,0.82
2022-08-07T21:00:07.756Z,0.60
2022-08-07T21:02:54.217Z,0.60
2022-08-07T21:05:54.961Z,0.50
2022-08-07T21:11:29.014Z,0.32
2022-08-07T21:14:35.634Z,0.50
2022-08-07T21:18:20.782Z,0.50
2022-08-07T21:20:07.035Z,0.40
2022-08-07T21:22:55.251Z,0.82
2022-08-07T21:25:56.104Z,0.50
2022-08-07T21:28:48.342Z,0.60
2022-08-07T21:32:42.349Z,0.80
2022-08-07T21:35:00.556Z,1.27
2022-08-07T21:37:59.268Z,0.63
2022-08-07T21:40:45.912Z,0.80
2022-08-07T21:43:47.153Z,0.52
2022-08-07T21:46:46.278Z,0.60
2022-08-07T21:50:00.855Z,0.65
2022-08-07T21:52:40.653Z,0.60
2022-08-07T21:55:27.866Z,0.50
2022-08-07T21:59:06.674Z,0.68
2022-08-07T22:02:11.050Z,0.50
2022-08-07T22:04:51.268Z,0.50
2022-08-07T22:07:48.679Z,0.47
2022-08-07T22:10:20.109Z,0.60
2022-08-07T22:13:13.738Z,0.50
2022-08-07T22:16:41.561Z,0.40
2022-08-07T22:19:29.231Z,0.50
2022-08-07T22:22:28.526Z,0.57
2022-08-07T22:25:12.066Z,0.47
2022-08-07T22:28:31.923Z,0.50
2022-08-07T22:31:55.879Z,0.50
2022-08-07T22:34:49.768Z,0.47
2022-08-07T22:37:27.490Z,0.40
2022-08-07T22:41:03.506Z,0.52
2022-08-07T22:43:50.623Z,0.60
2022-08-07T22:47:04.449Z,0.40
2022-08-07T22:50:21.000Z,0.50
2022-08-07T22:53:15.325Z,0.50
2022-08-07T22:55:58.296Z,0.60
2022-08-07T22:58:45.752Z,0.60
2022-08-07T23:02:04.262Z,0.50
2022-08-07T23:06:07.757Z,0.50
2022-08-07T23:07:57.558Z,0.60
2022-08-07T23:10:51.263Z,0.60
2022-08-07T23:13:48.860Z,0.55
2022-08-07T23:16:55.474Z,0.50
2022-08-07T23:20:51.518Z,0.60
2022-08-07T23:24:05.051Z,0.88
2022-08-07T23:26:56.818Z,0.82
2022-08-07T23:30:38.524Z,0.75
2022-08-07T23:34:36.244Z,0.60
2022-08-07T23:37:19.610Z,0.52
2022-08-07T23:43:07.793Z,0.60
2022-08-07T23:46:10.703Z,0.57
2022-08-07T23:49:15.199Z,0.63
2022-08-07T23:53:01.232Z,0.57
2022-08-07T23:55:08.410Z,0.60
2022-08-07T23:58:07.965Z,0.60
